createdAt,value
2018-02-07T00:00:59.296Z,1013.22
2018-02-07T00:01:58.704Z,1013.23
2018-02-07T00:02:59.157Z,1013.24
2018-02-07T00:03:58.585Z,1013.21
2018-02-07T00:04:59.015Z,1013.23
2018-02-07T00:05:58.458Z,1013.23
2018-02-07T00:06:58.906Z,1013.22
2018-02-07T00:07:59.329Z,1013.28
2018-02-07T00:08:58.779Z,1013.24
2018-02-07T00:09:59.229Z,1013.27
2018-02-07T00:10:58.658Z,1013.3
2018-02-07T00:11:59.117Z,1013.26
2018-02-07T00:12:58.545Z,1013.28
2018-02-07T00:13:59.069Z,1013.3
2018-02-07T00:15:58.725Z,1013.3
2018-02-07T00:16:59.171Z,1013.31
2018-02-07T00:17:58.790Z,1013.32
2018-02-07T00:18:59.243Z,1013.34
2018-02-07T00:19:58.705Z,1013.33
2018-02-07T00:20:59.149Z,1013.36
2018-02-07T00:21:58.563Z,1013.36
2018-02-07T00:22:59.022Z,1013.33
2018-02-07T00:23:58.442Z,1013.35
2018-02-07T00:24:58.866Z,1013.33
2018-02-07T00:25:59.315Z,1013.3
2018-02-07T00:26:58.739Z,1013.29
2018-02-07T00:27:59.157Z,1013.32
2018-02-07T00:28:58.582Z,1013.33
2018-02-07T00:29:59.001Z,1013.31
2018-02-07T00:30:58.436Z,1013.31
2018-02-07T00:31:58.880Z,1013.31
2018-02-07T00:32:59.298Z,1013.36
2018-02-07T00:33:58.822Z,1013.33
2018-02-07T00:34:59.238Z,1013.36
2018-02-07T00:35:58.683Z,1013.31
2018-02-07T00:36:59.153Z,1013.39
2018-02-07T00:37:58.570Z,1013.36
2018-02-07T00:38:59.014Z,1013.35
2018-02-07T00:39:58.464Z,1013.32
2018-02-07T00:40:58.908Z,1013.34
2018-02-07T00:41:59.327Z,1013.32
2018-02-07T00:42:58.761Z,1013.3
2018-02-07T00:43:59.221Z,1013.33
2018-02-07T00:44:58.646Z,1013.3
2018-02-07T00:45:59.058Z,1013.32
2018-02-07T00:46:58.539Z,1013.32
2018-02-07T00:47:58.980Z,1013.32
2018-02-07T00:48:58.471Z,1013.36
2018-02-07T00:49:58.918Z,1013.33
2018-02-07T00:50:59.344Z,1013.4
2018-02-07T00:51:58.761Z,1013.42
2018-02-07T00:52:59.168Z,1013.39
2018-02-07T00:53:58.595Z,1013.39
2018-02-07T00:54:59.053Z,1013.36
2018-02-07T00:55:58.478Z,1013.34
2018-02-07T00:56:58.938Z,1013.36
2018-02-07T00:57:58.462Z,1013.36
2018-02-07T00:58:58.989Z,1013.4
2018-02-07T00:59:58.460Z,1013.38
2018-02-07T01:00:59.035Z,1013.39
2018-02-07T01:01:58.513Z,1013.39
2018-02-07T01:02:58.953Z,1013.39
2018-02-07T01:03:58.376Z,1013.37
2018-02-07T01:04:58.869Z,1013.39
2018-02-07T01:05:59.286Z,1013.38
2018-02-07T01:06:58.714Z,1013.38
2018-02-07T01:07:59.164Z,1013.36
2018-02-07T01:08:58.685Z,1013.38
2018-02-07T01:09:59.151Z,1013.35
2018-02-07T01:10:58.601Z,1013.36
2018-02-07T01:11:59.043Z,1013.35
2018-02-07T01:12:58.500Z,1013.37
2018-02-07T01:13:58.918Z,1013.38
2018-02-07T01:14:59.383Z,1013.4
2018-02-07T01:15:58.850Z,1013.37
2018-02-07T01:16:59.277Z,1013.39
2018-02-07T01:17:58.729Z,1013.39
2018-02-07T01:18:58.393Z,1013.43
2018-02-07T01:19:58.840Z,1013.43
2018-02-07T01:20:59.311Z,1013.42
2018-02-07T01:21:58.721Z,1013.42
2018-02-07T01:22:59.177Z,1013.43
2018-02-07T01:23:58.636Z,1013.46
2018-02-07T01:24:59.118Z,1013.43
2018-02-07T01:25:58.542Z,1013.44
2018-02-07T01:26:59.025Z,1013.46
2018-02-07T01:27:58.446Z,1013.45
2018-02-07T01:28:58.880Z,1013.44
2018-02-07T01:29:59.302Z,1013.45
2018-02-07T01:30:58.786Z,1013.46
2018-02-07T01:31:59.210Z,1013.46
2018-02-07T01:32:58.670Z,1013.51
2018-02-07T01:33:59.124Z,1013.52
2018-02-07T01:34:58.567Z,1013.5
2018-02-07T01:35:59.015Z,1013.55
2018-02-07T01:36:58.463Z,1013.56
2018-02-07T01:37:58.882Z,1013.54
2018-02-07T01:38:59.326Z,1013.56
2018-02-07T01:39:58.762Z,1013.53
2018-02-07T01:40:59.204Z,1013.52
2018-02-07T01:41:58.630Z,1013.48
2018-02-07T01:42:59.066Z,1013.51
2018-02-07T01:43:58.493Z,1013.52
2018-02-07T01:44:58.953Z,1013.5
2018-02-07T01:45:58.419Z,1013.53
2018-02-07T01:46:58.844Z,1013.52
2018-02-07T01:47:59.259Z,1013.52
2018-02-07T01:48:58.676Z,1013.53
2018-02-07T01:49:59.110Z,1013.51
2018-02-07T01:50:58.558Z,1013.52
2018-02-07T01:51:58.979Z,1013.57
2018-02-07T01:52:58.449Z,1013.49
2018-02-07T01:53:58.804Z,1013.52
2018-02-07T01:54:59.227Z,1013.49
2018-02-07T01:55:58.759Z,1013.52
2018-02-07T01:56:59.215Z,1013.51
2018-02-07T01:57:58.665Z,1013.5
2018-02-07T01:58:59.092Z,1013.49
2018-02-07T01:59:58.515Z,1013.48
2018-02-07T02:00:59.094Z,1013.5
2018-02-07T02:01:58.527Z,1013.54
2018-02-07T02:02:59.005Z,1013.52
2018-02-07T02:03:58.422Z,1013.52
2018-02-07T02:04:58.855Z,1013.5
2018-02-07T02:05:59.300Z,1013.51
2018-02-07T02:06:58.727Z,1013.51
2018-02-07T02:07:59.153Z,1013.5
2018-02-07T02:08:58.575Z,1013.48
2018-02-07T02:09:58.983Z,1013.47
2018-02-07T02:10:58.451Z,1013.45
2018-02-07T02:11:58.877Z,1013.5
2018-02-07T02:12:59.315Z,1013.48
2018-02-07T02:13:58.740Z,1013.5
2018-02-07T02:14:59.147Z,1013.51
2018-02-07T02:15:58.574Z,1013.51
2018-02-07T02:16:59.022Z,1013.52
2018-02-07T02:17:58.457Z,1013.46
2018-02-07T02:18:58.922Z,1013.5
2018-02-07T02:19:58.553Z,1013.48
2018-02-07T02:20:58.999Z,1013.52
2018-02-07T02:21:58.449Z,1013.47
2018-02-07T02:22:58.858Z,1013.52
2018-02-07T02:23:59.286Z,1013.52
2018-02-07T02:24:58.750Z,1013.53
2018-02-07T02:25:59.170Z,1013.54
2018-02-07T02:26:58.637Z,1013.53
2018-02-07T02:27:59.093Z,1013.5
2018-02-07T02:28:58.507Z,1013.5
2018-02-07T02:29:58.969Z,1013.5
2018-02-07T02:30:58.420Z,1013.49
2018-02-07T02:31:58.880Z,1013.51
2018-02-07T02:32:59.327Z,1013.52
2018-02-07T02:33:58.816Z,1013.5
2018-02-07T02:34:59.275Z,1013.55
2018-02-07T02:35:58.707Z,1013.47
2018-02-07T02:36:59.157Z,1013.49
2018-02-07T02:37:58.595Z,1013.49
2018-02-07T02:38:59.057Z,1013.5
2018-02-07T02:39:58.516Z,1013.49
2018-02-07T02:40:58.962Z,1013.49
2018-02-07T02:41:58.412Z,1013.52
2018-02-07T02:42:58.836Z,1013.52
2018-02-07T02:43:59.268Z,1013.53
2018-02-07T02:44:58.691Z,1013.54
2018-02-07T02:45:59.145Z,1013.52
2018-02-07T02:46:58.579Z,1013.53
2018-02-07T02:47:59.025Z,1013.53
2018-02-07T02:48:58.449Z,1013.56
2018-02-07T02:49:58.847Z,1013.55
2018-02-07T02:50:59.258Z,1013.52
2018-02-07T02:51:58.703Z,1013.57
2018-02-07T02:52:59.156Z,1013.54
2018-02-07T02:53:58.567Z,1013.57
2018-02-07T02:54:58.965Z,1013.57
2018-02-07T02:55:58.394Z,1013.6
2018-02-07T02:56:58.819Z,1013.57
2018-02-07T02:57:59.453Z,1013.6
2018-02-07T02:58:59.004Z,1013.59
2018-02-07T02:59:58.425Z,1013.6
2018-02-07T03:00:58.852Z,1013.58
2018-02-07T03:01:59.266Z,1013.59
2018-02-07T03:02:58.722Z,1013.58
2018-02-07T03:03:59.160Z,1013.55
2018-02-07T03:04:58.579Z,1013.6
2018-02-07T03:05:59.064Z,1013.58
2018-02-07T03:06:58.504Z,1013.6
2018-02-07T03:07:59.096Z,1013.57
2018-02-07T03:08:58.515Z,1013.57
2018-02-07T03:09:58.947Z,1013.59
2018-02-07T03:10:58.396Z,1013.59
2018-02-07T03:11:58.829Z,1013.64
2018-02-07T03:12:59.303Z,1013.62
2018-02-07T03:13:58.754Z,1013.61
2018-02-07T03:14:59.166Z,1013.68
2018-02-07T03:15:58.590Z,1013.66
2018-02-07T03:16:59.031Z,1013.68
2018-02-07T03:17:58.476Z,1013.72
2018-02-07T03:18:58.897Z,1013.73
2018-02-07T03:19:58.314Z,1013.7
2018-02-07T03:20:58.978Z,1013.67
2018-02-07T03:21:58.488Z,1013.69
2018-02-07T03:22:58.922Z,1013.66
2018-02-07T03:23:58.345Z,1013.7
2018-02-07T03:24:58.766Z,1013.72
2018-02-07T03:25:59.181Z,1013.72
2018-02-07T03:26:58.584Z,1013.72
2018-02-07T03:27:59.086Z,1013.75
2018-02-07T03:28:58.521Z,1013.72
2018-02-07T03:29:58.943Z,1013.75
2018-02-07T03:30:58.360Z,1013.84
2018-02-07T03:31:58.794Z,1013.77
2018-02-07T03:32:59.248Z,1013.78
2018-02-07T03:33:58.672Z,1013.79
2018-02-07T03:34:59.091Z,1013.76
2018-02-07T03:35:58.512Z,1013.75
2018-02-07T03:36:58.967Z,1013.8
2018-02-07T03:37:58.423Z,1013.81
2018-02-07T03:38:58.847Z,1013.8
2018-02-07T03:39:59.275Z,1013.78
2018-02-07T03:40:58.778Z,1013.78
2018-02-07T03:41:59.201Z,1013.78
2018-02-07T03:42:58.657Z,1013.76
2018-02-07T03:43:59.083Z,1013.75
2018-02-07T03:44:58.495Z,1013.78
2018-02-07T03:45:58.906Z,1013.8
2018-02-07T03:46:58.324Z,1013.75
2018-02-07T03:47:58.743Z,1013.81
2018-02-07T03:48:59.239Z,1013.76
2018-02-07T03:49:58.681Z,1013.76
2018-02-07T03:50:59.106Z,1013.78
2018-02-07T03:51:58.526Z,1013.76
2018-02-07T03:52:59.014Z,1013.73
2018-02-07T03:53:58.501Z,1013.74
2018-02-07T03:54:58.919Z,1013.77
2018-02-07T03:55:58.343Z,1013.76
2018-02-07T03:56:58.789Z,1013.8
2018-02-07T03:57:59.198Z,1013.87
2018-02-07T03:58:58.636Z,1013.81
2018-02-07T03:59:59.051Z,1013.83
2018-02-07T04:01:58.755Z,1013.84
2018-02-07T04:02:59.192Z,1013.85
2018-02-07T04:03:58.636Z,1013.82
2018-02-07T04:04:59.052Z,1013.82
2018-02-07T04:05:58.486Z,1013.82
2018-02-07T04:06:58.917Z,1013.84
2018-02-07T04:07:58.393Z,1013.85
2018-02-07T04:08:58.854Z,1013.84
2018-02-07T04:09:59.301Z,1013.83
2018-02-07T04:10:58.716Z,1013.86
2018-02-07T04:11:59.161Z,1013.89
2018-02-07T04:12:58.582Z,1013.86
2018-02-07T04:13:59.034Z,1013.82
2018-02-07T04:14:58.515Z,1013.84
2018-02-07T04:15:58.939Z,1013.88
2018-02-07T04:16:58.356Z,1013.82
2018-02-07T04:17:58.808Z,1013.84
2018-02-07T04:18:59.227Z,1013.79
2018-02-07T04:19:58.831Z,1013.78
2018-02-07T04:20:59.272Z,1013.8
2018-02-07T04:21:58.931Z,1013.8
2018-02-07T04:22:58.380Z,1013.77
2018-02-07T04:23:58.824Z,1013.74
2018-02-07T04:24:59.292Z,1013.77
2018-02-07T04:25:58.718Z,1013.74
2018-02-07T04:26:59.132Z,1013.72
2018-02-07T04:27:58.580Z,1013.75
2018-02-07T04:28:58.997Z,1013.76
2018-02-07T04:29:58.442Z,1013.76
2018-02-07T04:30:58.901Z,1013.73
2018-02-07T04:31:58.326Z,1013.76
2018-02-07T04:32:58.759Z,1013.78
2018-02-07T04:33:59.175Z,1013.78
2018-02-07T04:34:58.593Z,1013.79
2018-02-07T04:35:59.045Z,1013.82
2018-02-07T04:36:58.463Z,1013.8
2018-02-07T04:37:58.900Z,1013.79
2018-02-07T04:38:58.327Z,1013.8
2018-02-07T04:39:58.861Z,1013.79
2018-02-07T04:40:58.290Z,1013.77
2018-02-07T04:41:58.715Z,1013.79
2018-02-07T04:42:59.141Z,1013.77
2018-02-07T04:43:58.571Z,1013.76
2018-02-07T04:44:58.985Z,1013.73
2018-02-07T04:45:58.401Z,1013.73
2018-02-07T04:46:58.831Z,1013.79
2018-02-07T04:47:58.263Z,1013.72
2018-02-07T04:48:58.742Z,1013.74
2018-02-07T04:49:59.192Z,1013.74
2018-02-07T04:50:58.667Z,1013.7
2018-02-07T04:51:59.096Z,1013.75
2018-02-07T04:52:58.563Z,1013.73
2018-02-07T04:53:59.005Z,1013.73
2018-02-07T04:54:58.413Z,1013.75
2018-02-07T04:55:58.878Z,1013.78
2018-02-07T04:56:58.347Z,1013.77
2018-02-07T04:57:58.782Z,1013.79
2018-02-07T04:58:59.228Z,1013.83
2018-02-07T04:59:58.741Z,1013.8
2018-02-07T05:00:59.276Z,1013.81
2018-02-07T05:01:58.707Z,1013.8
2018-02-07T05:02:59.187Z,1013.82
2018-02-07T05:03:58.712Z,1013.85
2018-02-07T05:04:59.173Z,1013.83
2018-02-07T05:05:58.600Z,1013.85
2018-02-07T05:06:59.044Z,1013.87
2018-02-07T05:07:58.489Z,1013.87
2018-02-07T05:08:58.932Z,1013.9
2018-02-07T05:09:58.415Z,1013.88
2018-02-07T05:10:59.058Z,1013.89
2018-02-07T05:11:58.499Z,1013.93
2018-02-07T05:12:58.927Z,1013.9
2018-02-07T05:13:58.369Z,1013.94
2018-02-07T05:14:58.800Z,1013.92
2018-02-07T05:15:59.260Z,1013.9
2018-02-07T05:16:58.681Z,1013.91
2018-02-07T05:17:59.162Z,1013.89
2018-02-07T05:18:58.677Z,1013.89
2018-02-07T05:19:59.121Z,1013.88
2018-02-07T05:20:58.643Z,1013.9
2018-02-07T05:21:59.069Z,1013.87
2018-02-07T05:23:59.015Z,1013.84
2018-02-07T05:24:58.434Z,1013.87
2018-02-07T05:25:58.871Z,1013.91
2018-02-07T05:26:58.414Z,1013.9
2018-02-07T05:28:59.157Z,1013.91
2018-02-07T05:29:58.602Z,1013.87
2018-02-07T05:30:59.041Z,1013.82
2018-02-07T05:31:58.461Z,1013.9
2018-02-07T05:33:58.337Z,1013.9
2018-02-07T05:34:58.783Z,1013.9
2018-02-07T05:35:59.204Z,1013.9
2018-02-07T05:36:58.641Z,1013.86
2018-02-07T05:37:59.203Z,1013.88
2018-02-07T05:38:58.635Z,1013.88
2018-02-07T05:39:59.065Z,1013.9
2018-02-07T05:40:58.502Z,1013.95
2018-02-07T05:41:58.948Z,1013.93
2018-02-07T05:42:58.412Z,1013.96
2018-02-07T05:43:58.834Z,1013.91
2018-02-07T05:44:58.285Z,1013.94
2018-02-07T05:45:58.711Z,1013.91
2018-02-07T05:46:59.164Z,1013.92
2018-02-07T05:47:58.571Z,1013.93
2018-02-07T05:48:59.031Z,1013.94
2018-02-07T05:49:58.491Z,1013.93
2018-02-07T05:50:58.959Z,1013.94
2018-02-07T05:51:58.393Z,1013.94
2018-02-07T05:52:58.854Z,1013.98
2018-02-07T05:53:58.355Z,1013.92
2018-02-07T05:54:58.771Z,1013.92
2018-02-07T05:55:59.202Z,1013.93
2018-02-07T05:56:58.615Z,1013.97
2018-02-07T05:57:59.037Z,1013.94
2018-02-07T05:58:58.489Z,1013.99
2018-02-07T05:59:58.924Z,1014.03
2018-02-07T06:00:58.374Z,1013.99
2018-02-07T06:01:58.809Z,1014.01
2018-02-07T06:02:59.228Z,1014.05
2018-02-07T06:03:58.679Z,1014.08
2018-02-07T06:04:59.107Z,1014.12
2018-02-07T06:05:58.529Z,1014.06
2018-02-07T06:06:58.961Z,1014.1
2018-02-07T06:07:58.394Z,1014.08
2018-02-07T06:08:58.810Z,1014.11
2018-02-07T06:09:59.263Z,1014.1
2018-02-07T06:10:58.705Z,1014.1
2018-02-07T06:11:59.130Z,1014.13
2018-02-07T06:12:58.565Z,1014.09
2018-02-07T06:13:59.025Z,1014.06
2018-02-07T06:14:58.507Z,1014.09
2018-02-07T06:15:58.929Z,1014.08
2018-02-07T06:16:58.359Z,1014.11
2018-02-07T06:17:58.800Z,1014.12
2018-02-07T06:18:59.244Z,1014.12
2018-02-07T06:19:58.675Z,1014.13
2018-02-07T06:20:59.192Z,1014.13
2018-02-07T06:21:58.614Z,1014.12
2018-02-07T06:22:59.048Z,1014.15
2018-02-07T06:23:58.664Z,1014.14
2018-02-07T06:24:59.093Z,1014.13
2018-02-07T06:25:58.517Z,1014.21
2018-02-07T06:26:58.950Z,1014.19
2018-02-07T06:27:58.405Z,1014.21
2018-02-07T06:28:59.050Z,1014.24
2018-02-07T06:29:58.417Z,1014.24
2018-02-07T06:30:58.858Z,1014.25
2018-02-07T06:31:58.289Z,1014.32
2018-02-07T06:32:58.725Z,1014.28
2018-02-07T06:33:59.200Z,1014.31
2018-02-07T06:34:58.643Z,1014.33
2018-02-07T06:35:59.075Z,1014.31
2018-02-07T06:36:58.492Z,1014.35
2018-02-07T06:37:58.914Z,1014.38
2018-02-07T06:38:58.383Z,1014.39
2018-02-07T06:39:58.820Z,1014.4
2018-02-07T06:40:58.257Z,1014.39
2018-02-07T06:41:58.696Z,1014.4
2018-02-07T06:42:59.118Z,1014.43
2018-02-07T06:43:58.555Z,1014.43
2018-02-07T06:44:58.992Z,1014.45
2018-02-07T06:45:58.422Z,1014.49
2018-02-07T06:46:58.863Z,1014.46
2018-02-07T06:47:58.295Z,1014.46
2018-02-07T06:48:58.735Z,1014.48
2018-02-07T06:49:59.204Z,1014.51
2018-02-07T06:50:58.622Z,1014.51
2018-02-07T06:51:59.315Z,1014.53
2018-02-07T06:52:58.687Z,1014.57
2018-02-07T06:53:59.163Z,1014.59
2018-02-07T06:54:58.617Z,1014.64
2018-02-07T06:55:59.032Z,1014.67
2018-02-07T06:56:58.497Z,1014.75
2018-02-07T06:57:58.922Z,1014.82
2018-02-07T06:58:58.373Z,1014.82
2018-02-07T06:59:58.900Z,1014.76
2018-02-07T07:00:58.329Z,1014.81
2018-02-07T07:01:58.837Z,1014.84
2018-02-07T07:02:58.271Z,1014.85
2018-02-07T07:03:58.778Z,1014.84
2018-02-07T07:04:58.293Z,1014.84
2018-02-07T07:05:58.725Z,1014.84
2018-02-07T07:06:59.417Z,1014.88
2018-02-07T07:07:58.834Z,1014.91
2018-02-07T07:08:58.262Z,1014.93
2018-02-07T07:09:58.687Z,1014.99
2018-02-07T07:10:59.134Z,1014.94
2018-02-07T07:11:58.591Z,1014.97
2018-02-07T07:12:59.021Z,1014.98
2018-02-07T07:13:58.455Z,1014.98
2018-02-07T07:14:58.907Z,1015.01
2018-02-07T07:15:58.443Z,1015
2018-02-07T07:16:58.893Z,1014.99
2018-02-07T07:17:58.318Z,1014.99
2018-02-07T07:18:58.762Z,1014.97
2018-02-07T07:19:59.042Z,1014.96
2018-02-07T07:20:58.463Z,1014.92
2018-02-07T07:21:58.899Z,1014.9
2018-02-07T07:22:58.351Z,1014.96
2018-02-07T07:23:58.788Z,1014.94
2018-02-07T07:24:58.468Z,1014.98
2018-02-07T07:25:58.891Z,1014.99
2018-02-07T07:26:58.327Z,1015.02
2018-02-07T07:27:58.755Z,1014.99
2018-02-07T07:28:59.196Z,1014.99
2018-02-07T07:29:58.651Z,1015.03
2018-02-07T07:30:59.082Z,1015.05
2018-02-07T07:31:58.512Z,1015.06
2018-02-07T07:32:58.963Z,1015.02
2018-02-07T07:33:58.405Z,1015.08
2018-02-07T07:34:58.843Z,1014.99
2018-02-07T07:36:58.456Z,1015
2018-02-07T07:37:58.922Z,1014.98
2018-02-07T07:38:58.357Z,1014.97
2018-02-07T07:39:58.789Z,1015
2018-02-07T07:40:58.219Z,1014.99
2018-02-07T07:41:58.644Z,1014.98
2018-02-07T07:42:59.060Z,1015
2018-02-07T07:43:58.511Z,1015.01
2018-02-07T07:44:58.942Z,1015.03
2018-02-07T07:45:58.361Z,1015.08
2018-02-07T07:46:58.793Z,1015.12
2018-02-07T07:47:58.230Z,1015.13
2018-02-07T07:48:58.673Z,1015.14
2018-02-07T07:49:59.216Z,1015.12
2018-02-07T07:50:58.641Z,1015.17
2018-02-07T07:51:59.078Z,1015.17
2018-02-07T07:52:58.490Z,1015.13
2018-02-07T07:54:59.262Z,1015.15
2018-02-07T07:55:58.726Z,1015.16
2018-02-07T07:56:59.136Z,1015.13
2018-02-07T07:57:58.571Z,1015.15
2018-02-07T07:58:59.005Z,1015.12
2018-02-07T07:59:58.472Z,1015.15
2018-02-07T08:00:59.019Z,1015.18
2018-02-07T08:01:58.586Z,1015.13
2018-02-07T08:02:59.000Z,1015.19
2018-02-07T08:03:58.449Z,1015.19
2018-02-07T08:04:58.912Z,1015.22
2018-02-07T08:06:58.671Z,1015.21
2018-02-07T08:07:59.118Z,1015.2
2018-02-07T08:08:58.527Z,1015.19
2018-02-07T08:09:58.991Z,1015.19
2018-02-07T08:10:58.497Z,1015.15
2018-02-07T08:11:58.901Z,1015.19
2018-02-07T08:12:58.382Z,1015.15
2018-02-07T08:13:58.825Z,1015.15
2018-02-07T08:14:58.274Z,1015.18
2018-02-07T08:15:58.738Z,1015.18
2018-02-07T08:16:59.159Z,1015.19
2018-02-07T08:17:58.624Z,1015.26
2018-02-07T08:18:59.107Z,1015.24
2018-02-07T08:19:58.544Z,1015.28
2018-02-07T08:20:59.003Z,1015.29
2018-02-07T08:21:58.418Z,1015.33
2018-02-07T08:22:58.866Z,1015.36
2018-02-07T08:23:58.318Z,1015.32
2018-02-07T08:24:58.793Z,1015.27
2018-02-07T08:25:58.450Z,1015.26
2018-02-07T08:26:58.904Z,1015.28
2018-02-07T08:27:58.601Z,1015.28
2018-02-07T08:28:59.018Z,1015.28
2018-02-07T08:29:58.430Z,1015.28
2018-02-07T08:30:58.904Z,1015.27
2018-02-07T08:31:58.365Z,1015.32
2018-02-07T08:32:58.891Z,1015.42
2018-02-07T08:33:58.335Z,1015.34
2018-02-07T08:34:58.762Z,1015.34
2018-02-07T08:35:58.231Z,1015.35
2018-02-07T08:36:58.676Z,1015.34
2018-02-07T08:37:59.239Z,1015.33
2018-02-07T08:38:58.663Z,1015.32
2018-02-07T08:39:59.130Z,1015.39
2018-02-07T08:40:58.574Z,1015.38
2018-02-07T08:41:59.020Z,1015.38
2018-02-07T08:42:58.496Z,1015.39
2018-02-07T08:43:58.907Z,1015.4
2018-02-07T08:44:58.358Z,1015.4
2018-02-07T08:45:58.801Z,1015.43
2018-02-07T08:46:58.215Z,1015.43
2018-02-07T08:47:58.683Z,1015.44
2018-02-07T08:48:59.231Z,1015.45
2018-02-07T08:49:58.673Z,1015.49
2018-02-07T08:50:59.166Z,1015.47
2018-02-07T08:51:58.620Z,1015.45
2018-02-07T08:52:59.067Z,1015.47
2018-02-07T08:53:58.540Z,1015.5
2018-02-07T08:54:58.970Z,1015.51
2018-02-07T08:55:58.472Z,1015.51
2018-02-07T08:56:59.006Z,1015.49
2018-02-07T08:57:58.458Z,1015.54
2018-02-07T08:58:58.913Z,1015.55
2018-02-07T08:59:58.361Z,1015.56
2018-02-07T09:00:58.846Z,1015.55
2018-02-07T09:01:58.282Z,1015.59
2018-02-07T09:02:58.734Z,1015.56
2018-02-07T09:03:59.152Z,1015.57
2018-02-07T09:04:58.728Z,1015.57
2018-02-07T09:05:59.167Z,1015.58
2018-02-07T09:06:58.612Z,1015.58
2018-02-07T09:07:59.054Z,1015.57
2018-02-07T09:08:58.520Z,1015.58
2018-02-07T09:09:59.031Z,1015.6
2018-02-07T09:10:58.704Z,1015.59
2018-02-07T09:11:59.110Z,1015.6
2018-02-07T09:12:58.559Z,1015.65
2018-02-07T09:13:59.014Z,1015.64
2018-02-07T09:14:58.464Z,1015.67
2018-02-07T09:15:58.940Z,1015.72
2018-02-07T09:16:58.397Z,1015.69
2018-02-07T09:17:58.827Z,1015.71
2018-02-07T09:18:58.241Z,1015.7
2018-02-07T09:19:58.698Z,1015.7
2018-02-07T09:20:59.134Z,1015.71
2018-02-07T09:21:58.597Z,1015.72
2018-02-07T09:22:59.059Z,1015.74
2018-02-07T09:23:58.513Z,1015.77
2018-02-07T09:24:58.948Z,1015.74
2018-02-07T09:25:58.410Z,1015.74
2018-02-07T09:26:59.080Z,1015.74
2018-02-07T09:27:58.597Z,1015.77
2018-02-07T09:28:59.056Z,1015.78
2018-02-07T09:30:58.930Z,1015.73
2018-02-07T09:31:58.395Z,1015.75
2018-02-07T09:32:58.894Z,1015.76
2018-02-07T09:33:58.316Z,1015.73
2018-02-07T09:34:58.787Z,1015.76
2018-02-07T09:35:58.250Z,1015.77
2018-02-07T09:36:58.688Z,1015.76
2018-02-07T09:37:59.173Z,1015.79
2018-02-07T09:38:58.610Z,1015.83
2018-02-07T09:39:59.065Z,1015.83
2018-02-07T09:40:58.536Z,1015.83
2018-02-07T09:41:58.981Z,1015.85
2018-02-07T09:42:58.463Z,1015.83
2018-02-07T09:43:58.884Z,1015.84
2018-02-07T09:44:58.307Z,1015.86
2018-02-07T09:45:58.729Z,1015.91
2018-02-07T09:46:59.155Z,1015.92
2018-02-07T09:47:58.604Z,1015.93
2018-02-07T09:48:59.051Z,1015.93
2018-02-07T09:49:58.516Z,1015.95
2018-02-07T09:50:58.999Z,1015.92
2018-02-07T09:51:58.433Z,1015.94
2018-02-07T09:52:58.874Z,1015.93
2018-02-07T09:53:58.369Z,1015.95
2018-02-07T09:54:58.800Z,1015.95
2018-02-07T09:55:58.297Z,1015.98
2018-02-07T09:56:58.713Z,1015.98
2018-02-07T09:57:59.166Z,1015.98
2018-02-07T09:58:58.607Z,1016.02
2018-02-07T09:59:59.068Z,1016.03
2018-02-07T10:00:58.558Z,1016
2018-02-07T10:01:59.034Z,1016.01
2018-02-07T10:02:58.508Z,1016.01
2018-02-07T10:03:58.955Z,1016.03
2018-02-07T10:04:58.399Z,1016.02
2018-02-07T10:05:58.826Z,1016.05
2018-02-07T10:06:58.392Z,1016.01
2018-02-07T10:07:58.837Z,1016.02
2018-02-07T10:08:58.312Z,1016.01
2018-02-07T10:09:58.771Z,1016
2018-02-07T10:10:58.221Z,1016
2018-02-07T10:11:58.674Z,1015.98
2018-02-07T10:12:59.113Z,1016.03
2018-02-07T10:13:58.704Z,1015.99
2018-02-07T10:14:58.266Z,1015.99
2018-02-07T10:15:58.729Z,1016
2018-02-07T10:16:58.162Z,1016.04
2018-02-07T10:17:58.619Z,1016.06
2018-02-07T10:18:59.093Z,1016.04
2018-02-07T10:19:58.539Z,1016.05
2018-02-07T10:20:58.945Z,1016.08
2018-02-07T10:21:58.393Z,1016.09
2018-02-07T10:22:58.936Z,1016.12
2018-02-07T10:23:58.370Z,1016.11
2018-02-07T10:24:58.812Z,1016.15
2018-02-07T10:25:58.300Z,1016.13
2018-02-07T10:26:58.944Z,1016.14
2018-02-07T10:27:58.358Z,1016.17
2018-02-07T10:28:58.798Z,1016.17
2018-02-07T10:29:58.223Z,1016.17
2018-02-07T10:30:58.801Z,1016.16
2018-02-07T10:31:58.220Z,1016.21
2018-02-07T10:32:58.639Z,1016.16
2018-02-07T10:33:59.101Z,1016.22
2018-02-07T10:34:58.559Z,1016.21
2018-02-07T10:35:59.030Z,1016.24
2018-02-07T10:36:58.534Z,1016.21
2018-02-07T10:37:58.984Z,1016.18
2018-02-07T10:38:58.425Z,1016.22
2018-02-07T10:39:58.876Z,1016.19
2018-02-07T10:40:58.323Z,1016.17
2018-02-07T10:41:58.802Z,1016.18
2018-02-07T10:42:58.253Z,1016.13
2018-02-07T10:43:58.710Z,1016.16
2018-02-07T10:44:59.158Z,1016.13
2018-02-07T10:45:58.647Z,1016.14
2018-02-07T10:46:59.078Z,1016.14
2018-02-07T10:47:58.535Z,1016.12
2018-02-07T10:48:58.952Z,1016.08
2018-02-07T10:49:58.403Z,1016.12
2018-02-07T10:50:58.847Z,1016.09
2018-02-07T10:51:58.300Z,1016.11
2018-02-07T10:52:58.816Z,1016.11
2018-02-07T10:53:58.268Z,1016.11
2018-02-07T10:54:58.725Z,1016.13
2018-02-07T10:55:58.166Z,1016.11
2018-02-07T10:56:58.656Z,1016.14
2018-02-07T10:57:59.131Z,1016.13
2018-02-07T10:58:58.557Z,1016.15
2018-02-07T10:59:58.990Z,1016.14
2018-02-07T11:00:58.444Z,1016.12
2018-02-07T11:01:58.926Z,1016.14
2018-02-07T11:02:58.383Z,1016.14
2018-02-07T11:03:58.795Z,1016.15
2018-02-07T11:04:58.251Z,1016.09
2018-02-07T11:05:58.701Z,1016.1
2018-02-07T11:06:59.128Z,1016.1
2018-02-07T11:07:58.565Z,1016.09
2018-02-07T11:08:59.034Z,1016.11
2018-02-07T11:09:58.611Z,1016.11
2018-02-07T11:10:59.050Z,1016.1
2018-02-07T11:11:58.447Z,1016.06
2018-02-07T11:12:58.907Z,1016.08
2018-02-07T11:13:58.384Z,1016.08
2018-02-07T11:14:58.841Z,1016.07
2018-02-07T11:15:58.295Z,1016.09
2018-02-07T11:16:58.706Z,1016.09
2018-02-07T11:17:58.244Z,1016.08
2018-02-07T11:18:58.789Z,1016.14
2018-02-07T11:19:58.218Z,1016.11
2018-02-07T11:20:58.696Z,1016.12
2018-02-07T11:21:59.128Z,1016.1
2018-02-07T11:22:58.558Z,1016.11
2018-02-07T11:23:59.043Z,1016.1
2018-02-07T11:24:58.515Z,1016.08
2018-02-07T11:25:58.954Z,1016.09
2018-02-07T11:26:58.384Z,1016.1
2018-02-07T11:27:59.085Z,1016.1
2018-02-07T11:28:58.552Z,1016.06
2018-02-07T11:29:58.976Z,1016.07
2018-02-07T11:30:58.408Z,1016.06
2018-02-07T11:31:58.877Z,1016.03
2018-02-07T11:32:58.301Z,1016.01
2018-02-07T11:33:58.761Z,1015.98
2018-02-07T11:34:58.203Z,1015.92
2018-02-07T11:35:58.695Z,1015.95
2018-02-07T11:36:59.074Z,1015.88
2018-02-07T11:37:58.519Z,1015.87
2018-02-07T11:38:59.255Z,1015.85
2018-02-07T11:39:58.739Z,1015.84
2018-02-07T11:40:58.204Z,1015.85
2018-02-07T11:41:58.652Z,1015.92
2018-02-07T11:42:59.070Z,1015.87
2018-02-07T11:43:58.550Z,1015.89
2018-02-07T11:44:58.997Z,1015.89
2018-02-07T11:45:58.456Z,1015.91
2018-02-07T11:46:58.906Z,1015.96
2018-02-07T11:47:58.375Z,1015.91
2018-02-07T11:48:58.847Z,1015.93
2018-02-07T11:49:58.270Z,1015.86
2018-02-07T11:50:58.755Z,1015.87
2018-02-07T11:52:58.569Z,1015.84
2018-02-07T11:53:59.024Z,1015.88
2018-02-07T11:54:58.528Z,1015.83
2018-02-07T11:55:58.990Z,1015.84
2018-02-07T11:56:58.436Z,1015.84
2018-02-07T11:57:58.903Z,1015.83
2018-02-07T11:58:58.382Z,1015.83
2018-02-07T11:59:58.799Z,1015.87
2018-02-07T12:00:58.259Z,1015.88
2018-02-07T12:01:58.691Z,1015.85
2018-02-07T12:02:58.136Z,1015.84
2018-02-07T12:03:58.608Z,1015.82
2018-02-07T12:04:59.057Z,1015.83
2018-02-07T12:05:58.510Z,1015.81
2018-02-07T12:06:58.968Z,1015.84
2018-02-07T12:07:58.443Z,1015.82
2018-02-07T12:08:58.856Z,1015.8
2018-02-07T12:09:58.320Z,1015.84
2018-02-07T12:10:58.786Z,1015.87
2018-02-07T12:11:58.271Z,1015.89
2018-02-07T12:12:58.665Z,1015.88
2018-02-07T12:13:59.080Z,1015.81
2018-02-07T12:14:58.515Z,1015.83
2018-02-07T12:15:59.008Z,1015.84
2018-02-07T12:17:58.706Z,1015.81
2018-02-07T12:18:58.130Z,1015.81
2018-02-07T12:19:58.596Z,1015.85